sensor_id;sensor_type;location;lat;lon;timestamp;P1;durP1;ratioP1;P2;durP2;ratioP2
14306;SDS011;7237;49.500;11.400;2023-04-24T00:00:44;1.73;;;1.13;;
14306;SDS011;7237;49.500;11.400;2023-04-24T00:03:11;1.33;;;1.27;;
14306;SDS011;7237;49.500;11.400;2023-04-24T00:05:39;4.50;;;1.40;;
14306;SDS011;7237;49.500;11.400;2023-04-24T00:08:06;2.00;;;1.60;;
14306;SDS011;7237;49.500;11.400;2023-04-24T00:10:33;1.30;;;1.20;;
14306;SDS011;7237;49.500;11.400;2023-04-24T00:13:00;1.30;;;1.20;;
14306;SDS011;7237;49.500;11.400;2023-04-24T00:15:27;1.20;;;1.10;;
14306;SDS011;7237;49.500;11.400;2023-04-24T00:17:55;1.83;;;1.50;;
14306;SDS011;7237;49.500;11.400;2023-04-24T00:20:22;1.77;;;1.40;;
14306;SDS011;7237;49.500;11.400;2023-04-24T00:22:50;1.40;;;1.30;;
14306;SDS011;7237;49.500;11.400;2023-04-24T00:25:17;3.47;;;1.40;;
14306;SDS011;7237;49.500;11.400;2023-04-24T00:27:44;4.30;;;1.77;;
14306;SDS011;7237;49.500;11.400;2023-04-24T00:30:11;3.97;;;1.50;;
14306;SDS011;7237;49.500;11.400;2023-04-24T00:32:38;1.73;;;1.20;;
14306;SDS011;7237;49.500;11.400;2023-04-24T00:35:07;1.53;;;1.30;;
14306;SDS011;7237;49.500;11.400;2023-04-24T00:37:35;1.37;;;1.27;;
14306;SDS011;7237;49.500;11.400;2023-04-24T00:40:02;3.30;;;1.53;;
14306;SDS011;7237;49.500;11.400;2023-04-24T00:42:31;1.40;;;1.30;;
14306;SDS011;7237;49.500;11.400;2023-04-24T00:44:58;1.93;;;1.17;;
14306;SDS011;7237;49.500;11.400;2023-04-24T00:47:25;1.40;;;1.30;;
14306;SDS011;7237;49.500;11.400;2023-04-24T00:49:52;1.67;;;1.40;;
14306;SDS011;7237;49.500;11.400;2023-04-24T00:52:20;2.00;;;1.47;;
14306;SDS011;7237;49.500;11.400;2023-04-24T00:54:49;1.97;;;1.30;;
14306;SDS011;7237;49.500;11.400;2023-04-24T00:57:16;2.67;;;1.47;;
14306;SDS011;7237;49.500;11.400;2023-04-24T00:59:44;1.63;;;1.53;;
14306;SDS011;7237;49.500;11.400;2023-04-24T01:02:11;1.70;;;1.30;;
14306;SDS011;7237;49.500;11.400;2023-04-24T01:04:38;2.40;;;1.50;;
14306;SDS011;7237;49.500;11.400;2023-04-24T01:07:05;3.53;;;1.57;;
14306;SDS011;7237;49.500;11.400;2023-04-24T01:09:36;2.53;;;1.87;;
14306;SDS011;7237;49.500;11.400;2023-04-24T01:12:04;2.70;;;1.60;;
14306;SDS011;7237;49.500;11.400;2023-04-24T01:14:31;1.67;;;1.30;;
14306;SDS011;7237;49.500;11.400;2023-04-24T01:16:59;2.43;;;1.57;;
14306;SDS011;7237;49.500;11.400;2023-04-24T01:19:26;2.30;;;1.80;;
14306;SDS011;7237;49.500;11.400;2023-04-24T01:21:54;1.47;;;1.37;;
14306;SDS011;7237;49.500;11.400;2023-04-24T01:24:24;1.80;;;1.33;;
14306;SDS011;7237;49.500;11.400;2023-04-24T01:26:52;2.40;;;1.50;;
14306;SDS011;7237;49.500;11.400;2023-04-24T01:29:19;1.60;;;1.50;;
14306;SDS011;7237;49.500;11.400;2023-04-24T01:31:46;2.37;;;1.60;;
14306;SDS011;7237;49.500;11.400;2023-04-24T01:34:13;1.90;;;1.60;;
14306;SDS011;7237;49.500;11.400;2023-04-24T01:36:42;3.10;;;1.50;;
14306;SDS011;7237;49.500;11.400;2023-04-24T01:39:09;1.60;;;1.40;;
14306;SDS011;7237;49.500;11.400;2023-04-24T01:41:38;1.83;;;1.40;;
14306;SDS011;7237;49.500;11.400;2023-04-24T01:44:05;4.17;;;1.30;;
14306;SDS011;7237;49.500;11.400;2023-04-24T01:46:32;1.60;;;1.50;;
14306;SDS011;7237;49.500;11.400;2023-04-24T01:49:01;2.63;;;1.40;;
14306;SDS011;7237;49.500;11.400;2023-04-24T01:51:28;2.47;;;1.37;;
14306;SDS011;7237;49.500;11.400;2023-04-24T01:53:55;4.80;;;1.60;;
14306;SDS011;7237;49.500;11.400;2023-04-24T01:56:22;3.60;;;2.00;;
14306;SDS011;7237;49.500;11.400;2023-04-24T01:58:50;2.50;;;1.50;;
14306;SDS011;7237;49.500;11.400;2023-04-24T02:01:19;1.73;;;1.63;;
14306;SDS011;7237;49.500;11.400;2023-04-24T02:03:46;2.93;;;1.60;;
14306;SDS011;7237;49.500;11.400;2023-04-24T02:06:13;1.50;;;1.40;;
14306;SDS011;7237;49.500;11.400;2023-04-24T02:08:40;4.20;;;1.63;;
14306;SDS011;7237;49.500;11.400;2023-04-24T02:11:08;2.07;;;1.67;;
14306;SDS011;7237;49.500;11.400;2023-04-24T02:13:35;2.17;;;1.60;;
14306;SDS011;7237;49.500;11.400;2023-04-24T02:16:03;2.10;;;1.43;;
14306;SDS011;7237;49.500;11.400;2023-04-24T02:18:31;1.50;;;1.40;;
14306;SDS011;7237;49.500;11.400;2023-04-24T02:20:58;2.00;;;1.37;;
14306;SDS011;7237;49.500;11.400;2023-04-24T02:23:25;1.70;;;1.30;;
14306;SDS011;7237;49.500;11.400;2023-04-24T02:25:52;1.60;;;1.43;;
14306;SDS011;7237;49.500;11.400;2023-04-24T02:28:19;1.80;;;1.57;;
14306;SDS011;7237;49.500;11.400;2023-04-24T02:30:46;1.63;;;1.30;;
14306;SDS011;7237;49.500;11.400;2023-04-24T02:33:14;2.17;;;1.47;;
14306;SDS011;7237;49.500;11.400;2023-04-24T02:35:41;1.50;;;1.40;;
14306;SDS011;7237;49.500;11.400;2023-04-24T02:38:09;1.50;;;1.40;;
14306;SDS011;7237;49.500;11.400;2023-04-24T02:40:36;1.30;;;1.20;;
14306;SDS011;7237;49.500;11.400;2023-04-24T02:43:03;1.67;;;1.47;;
14306;SDS011;7237;49.500;11.400;2023-04-24T02:45:30;1.77;;;1.50;;
14306;SDS011;7237;49.500;11.400;2023-04-24T02:47:59;1.80;;;1.67;;
14306;SDS011;7237;49.500;11.400;2023-04-24T02:50:28;1.90;;;1.70;;
14306;SDS011;7237;49.500;11.400;2023-04-24T02:52:55;1.77;;;1.53;;
14306;SDS011;7237;49.500;11.400;2023-04-24T02:55:22;1.50;;;1.40;;
14306;SDS011;7237;49.500;11.400;2023-04-24T02:57:49;2.00;;;1.80;;
14306;SDS011;7237;49.500;11.400;2023-04-24T03:00:16;1.87;;;1.50;;
14306;SDS011;7237;49.500;11.400;2023-04-24T03:02:43;1.60;;;1.50;;
14306;SDS011;7237;49.500;11.400;2023-04-24T03:05:10;3.33;;;1.60;;
14306;SDS011;7237;49.500;11.400;2023-04-24T03:07:39;2.73;;;1.33;;
14306;SDS011;7237;49.500;11.400;2023-04-24T03:10:06;2.13;;;1.50;;
14306;SDS011;7237;49.500;11.400;2023-04-24T03:12:34;1.87;;;1.77;;
14306;SDS011;7237;49.500;11.400;2023-04-24T03:15:01;1.50;;;1.40;;
14306;SDS011;7237;49.500;11.400;2023-04-24T03:17:28;2.77;;;1.70;;
14306;SDS011;7237;49.500;11.400;2023-04-24T03:19:55;1.37;;;1.27;;
14306;SDS011;7237;49.500;11.400;2023-04-24T03:22:22;3.80;;;1.70;;
14306;SDS011;7237;49.500;11.400;2023-04-24T03:24:50;2.67;;;1.60;;
14306;SDS011;7237;49.500;11.400;2023-04-24T03:27:17;2.10;;;1.50;;
14306;SDS011;7237;49.500;11.400;2023-04-24T03:29:44;2.40;;;1.80;;
14306;SDS011;7237;49.500;11.400;2023-04-24T03:32:11;3.07;;;1.67;;
14306;SDS011;7237;49.500;11.400;2023-04-24T03:34:38;1.97;;;1.67;;
14306;SDS011;7237;49.500;11.400;2023-04-24T03:37:06;2.60;;;1.70;;
14306;SDS011;7237;49.500;11.400;2023-04-24T03:39:33;2.10;;;1.77;;
14306;SDS011;7237;49.500;11.400;2023-04-24T03:42:01;1.70;;;1.60;;
14306;SDS011;7237;49.500;11.400;2023-04-24T03:44:28;2.00;;;1.90;;
14306;SDS011;7237;49.500;11.400;2023-04-24T03:46:55;2.13;;;1.87;;
14306;SDS011;7237;49.500;11.400;2023-04-24T03:49:24;2.27;;;2.00;;
14306;SDS011;7237;49.500;11.400;2023-04-24T03:51:51;3.50;;;1.70;;
14306;SDS011;7237;49.500;11.400;2023-04-24T03:54:18;2.20;;;2.00;;
14306;SDS011;7237;49.500;11.400;2023-04-24T03:56:45;2.73;;;2.17;;
14306;SDS011;7237;49.500;11.400;2023-04-24T03:59:14;3.57;;;2.50;;
14306;SDS011;7237;49.500;11.400;2023-04-24T04:01:41;2.43;;;2.03;;
14306;SDS011;7237;49.500;11.400;2023-04-24T04:04:08;2.63;;;1.80;;
14306;SDS011;7237;49.500;11.400;2023-04-24T04:06:35;3.40;;;2.00;;
14306;SDS011;7237;49.500;11.400;2023-04-24T04:09:02;3.17;;;2.37;;
14306;SDS011;7237;49.500;11.400;2023-04-24T04:11:29;2.00;;;1.90;;
14306;SDS011;7237;49.500;11.400;2023-04-24T04:13:56;3.03;;;2.17;;
14306;SDS011;7237;49.500;11.400;2023-04-24T04:16:25;2.17;;;1.97;;
14306;SDS011;7237;49.500;11.400;2023-04-24T04:18:52;2.73;;;1.63;;
14306;SDS011;7237;49.500;11.400;2023-04-24T04:21:19;2.03;;;1.83;;
14306;SDS011;7237;49.500;11.400;2023-04-24T04:23:46;4.07;;;2.23;;
14306;SDS011;7237;49.500;11.400;2023-04-24T04:26:13;3.17;;;2.33;;
14306;SDS011;7237;49.500;11.400;2023-04-24T04:28:40;4.00;;;2.20;;
14306;SDS011;7237;49.500;11.400;2023-04-24T04:31:09;2.13;;;1.97;;
14306;SDS011;7237;49.500;11.400;2023-04-24T04:33:38;2.33;;;2.13;;
14306;SDS011;7237;49.500;11.400;2023-04-24T04:36:05;2.50;;;2.30;;
14306;SDS011;7237;49.500;11.400;2023-04-24T04:38:32;3.50;;;2.57;;
14306;SDS011;7237;49.500;11.400;2023-04-24T04:41:00;4.03;;;2.30;;
14306;SDS011;7237;49.500;11.400;2023-04-24T04:43:27;2.53;;;2.20;;
14306;SDS011;7237;49.500;11.400;2023-04-24T04:45:55;4.70;;;2.30;;
14306;SDS011;7237;49.500;11.400;2023-04-24T04:48:23;1.67;;;1.50;;
14306;SDS011;7237;49.500;11.400;2023-04-24T04:50:51;3.40;;;1.67;;
14306;SDS011;7237;49.500;11.400;2023-04-24T04:53:18;1.70;;;1.60;;
14306;SDS011;7237;49.500;11.400;2023-04-24T04:55:45;1.40;;;1.30;;
14306;SDS011;7237;49.500;11.400;2023-04-24T04:58:13;3.40;;;1.30;;
14306;SDS011;7237;49.500;11.400;2023-04-24T05:00:40;1.80;;;1.10;;
14306;SDS011;7237;49.500;11.400;2023-04-24T05:03:07;4.23;;;1.63;;
14306;SDS011;7237;49.500;11.400;2023-04-24T05:05:34;1.50;;;1.40;;
14306;SDS011;7237;49.500;11.400;2023-04-24T05:08:06;2.90;;;1.93;;
14306;SDS011;7237;49.500;11.400;2023-04-24T05:10:33;2.83;;;1.87;;
14306;SDS011;7237;49.500;11.400;2023-04-24T05:13:01;2.00;;;1.80;;
14306;SDS011;7237;49.500;11.400;2023-04-24T05:15:29;3.20;;;1.47;;
14306;SDS011;7237;49.500;11.400;2023-04-24T05:17:56;2.60;;;1.60;;
14306;SDS011;7237;49.500;11.400;2023-04-24T05:20:23;2.80;;;1.50;;
14306;SDS011;7237;49.500;11.400;2023-04-24T05:22:50;4.40;;;1.50;;
14306;SDS011;7237;49.500;11.400;2023-04-24T05:25:19;1.47;;;1.37;;
14306;SDS011;7237;49.500;11.400;2023-04-24T05:27:46;2.47;;;1.47;;
14306;SDS011;7237;49.500;11.400;2023-04-24T05:30:13;2.73;;;1.43;;
14306;SDS011;7237;49.500;11.400;2023-04-24T05:32:40;1.40;;;1.30;;
14306;SDS011;7237;49.500;11.400;2023-04-24T05:35:07;1.83;;;1.30;;
14306;SDS011;7237;49.500;11.400;2023-04-24T05:37:34;2.10;;;1.40;;
14306;SDS011;7237;49.500;11.400;2023-04-24T05:40:01;4.10;;;1.37;;
14306;SDS011;7237;49.500;11.400;2023-04-24T05:42:31;1.30;;;1.20;;
14306;SDS011;7237;49.500;11.400;2023-04-24T05:44:58;1.00;;;0.90;;
14306;SDS011;7237;49.500;11.400;2023-04-24T05:47:25;1.20;;;1.10;;
14306;SDS011;7237;49.500;11.400;2023-04-24T05:49:52;4.17;;;1.30;;
14306;SDS011;7237;49.500;11.400;2023-04-24T05:52:19;1.00;;;0.90;;
14306;SDS011;7237;49.500;11.400;2023-04-24T05:54:46;0.97;;;0.93;;
14306;SDS011;7237;49.500;11.400;2023-04-24T05:57:13;1.80;;;1.27;;
14306;SDS011;7237;49.500;11.400;2023-04-24T05:59:42;1.63;;;1.13;;
14306;SDS011;7237;49.500;11.400;2023-04-24T06:02:09;1.50;;;1.20;;
14306;SDS011;7237;49.500;11.400;2023-04-24T06:04:36;2.50;;;1.20;;
14306;SDS011;7237;49.500;11.400;2023-04-24T06:07:03;2.67;;;1.40;;
14306;SDS011;7237;49.500;11.400;2023-04-24T06:09:30;1.43;;;1.30;;
14306;SDS011;7237;49.500;11.400;2023-04-24T06:11:57;2.67;;;1.43;;
14306;SDS011;7237;49.500;11.400;2023-04-24T06:14:25;1.20;;;1.10;;
14306;SDS011;7237;49.500;11.400;2023-04-24T06:16:53;2.43;;;1.23;;
14306;SDS011;7237;49.500;11.400;2023-04-24T06:19:20;1.40;;;1.30;;
14306;SDS011;7237;49.500;11.400;2023-04-24T06:21:47;1.60;;;1.50;;
14306;SDS011;7237;49.500;11.400;2023-04-24T06:24:14;1.30;;;1.20;;
14306;SDS011;7237;49.500;11.400;2023-04-24T06:26:42;1.70;;;1.10;;
14306;SDS011;7237;49.500;11.400;2023-04-24T06:29:09;1.30;;;1.20;;
14306;SDS011;7237;49.500;11.400;2023-04-24T06:31:36;2.33;;;1.47;;
14306;SDS011;7237;49.500;11.400;2023-04-24T06:34:05;1.90;;;1.27;;
14306;SDS011;7237;49.500;11.400;2023-04-24T06:36:32;1.57;;;1.30;;
14306;SDS011;7237;49.500;11.400;2023-04-24T06:38:59;3.83;;;1.40;;
14306;SDS011;7237;49.500;11.400;2023-04-24T06:41:26;1.53;;;1.20;;
14306;SDS011;7237;49.500;11.400;2023-04-24T06:43:53;1.23;;;1.13;;
14306;SDS011;7237;49.500;11.400;2023-04-24T06:46:21;1.63;;;1.40;;
14306;SDS011;7237;49.500;11.400;2023-04-24T06:48:50;1.20;;;1.10;;
14306;SDS011;7237;49.500;11.400;2023-04-24T06:51:21;0.90;;;0.90;;
14306;SDS011;7237;49.500;11.400;2023-04-24T06:53:48;1.67;;;1.53;;
14306;SDS011;7237;49.500;11.400;2023-04-24T06:56:16;1.20;;;1.10;;
14306;SDS011;7237;49.500;11.400;2023-04-24T06:58:43;1.00;;;1.00;;
14306;SDS011;7237;49.500;11.400;2023-04-24T07:01:10;1.67;;;1.30;;
14306;SDS011;7237;49.500;11.400;2023-04-24T07:03:37;1.40;;;1.07;;
14306;SDS011;7237;49.500;11.400;2023-04-24T07:06:05;1.27;;;1.00;;
14306;SDS011;7237;49.500;11.400;2023-04-24T07:08:33;2.37;;;1.00;;
14306;SDS011;7237;49.500;11.400;2023-04-24T07:11:00;2.53;;;1.10;;
14306;SDS011;7237;49.500;11.400;2023-04-24T07:13:27;1.93;;;0.90;;
14306;SDS011;7237;49.500;11.400;2023-04-24T07:15:54;1.00;;;1.00;;
14306;SDS011;7237;49.500;11.400;2023-04-24T07:18:22;2.33;;;1.20;;
14306;SDS011;7237;49.500;11.400;2023-04-24T07:20:49;2.13;;;1.07;;
14306;SDS011;7237;49.500;11.400;2023-04-24T07:23:16;1.03;;;1.00;;
14306;SDS011;7237;49.500;11.400;2023-04-24T07:25:44;1.20;;;1.10;;
14306;SDS011;7237;49.500;11.400;2023-04-24T07:28:12;1.00;;;1.00;;
14306;SDS011;7237;49.500;11.400;2023-04-24T07:30:39;1.27;;;1.17;;
14306;SDS011;7237;49.500;11.400;2023-04-24T07:33:06;2.50;;;1.30;;
14306;SDS011;7237;49.500;11.400;2023-04-24T07:35:33;2.07;;;1.00;;
14306;SDS011;7237;49.500;11.400;2023-04-24T07:38:00;1.27;;;1.00;;
14306;SDS011;7237;49.500;11.400;2023-04-24T07:40:28;1.37;;;1.00;;
14306;SDS011;7237;49.500;11.400;2023-04-24T07:42:56;1.20;;;0.97;;
14306;SDS011;7237;49.500;11.400;2023-04-24T07:45:23;1.27;;;1.20;;
14306;SDS011;7237;49.500;11.400;2023-04-24T07:47:51;1.07;;;0.97;;
14306;SDS011;7237;49.500;11.400;2023-04-24T07:50:18;0.93;;;0.83;;
14306;SDS011;7237;49.500;11.400;2023-04-24T07:52:45;1.20;;;1.00;;
14306;SDS011;7237;49.500;11.400;2023-04-24T07:55:12;0.87;;;0.77;;
14306;SDS011;7237;49.500;11.400;2023-04-24T07:57:39;1.33;;;1.00;;
14306;SDS011;7237;49.500;11.400;2023-04-24T08:00:08;1.20;;;1.10;;
14306;SDS011;7237;49.500;11.400;2023-04-24T08:02:36;1.47;;;1.27;;
14306;SDS011;7237;49.500;11.400;2023-04-24T08:05:03;1.20;;;1.20;;
14306;SDS011;7237;49.500;11.400;2023-04-24T08:07:30;1.30;;;1.20;;
14306;SDS011;7237;49.500;11.400;2023-04-24T08:09:58;2.40;;;0.90;;
14306;SDS011;7237;49.500;11.400;2023-04-24T08:12:25;1.03;;;0.93;;
14306;SDS011;7237;49.500;11.400;2023-04-24T08:14:52;2.33;;;1.00;;
14306;SDS011;7237;49.500;11.400;2023-04-24T08:17:20;1.77;;;1.13;;
14306;SDS011;7237;49.500;11.400;2023-04-24T08:19:47;1.30;;;1.20;;
14306;SDS011;7237;49.500;11.400;2023-04-24T08:22:16;1.40;;;1.30;;
14306;SDS011;7237;49.500;11.400;2023-04-24T08:24:43;2.63;;;1.20;;
14306;SDS011;7237;49.500;11.400;2023-04-24T08:27:10;1.27;;;1.17;;
14306;SDS011;7237;49.500;11.400;2023-04-24T08:29:37;1.43;;;1.13;;
14306;SDS011;7237;49.500;11.400;2023-04-24T08:32:04;1.50;;;1.40;;
14306;SDS011;7237;49.500;11.400;2023-04-24T08:34:32;1.20;;;1.20;;
14306;SDS011;7237;49.500;11.400;2023-04-24T08:36:59;1.13;;;1.03;;
14306;SDS011;7237;49.500;11.400;2023-04-24T08:39:26;1.40;;;1.30;;
14306;SDS011;7237;49.500;11.400;2023-04-24T08:41:54;1.27;;;1.23;;
14306;SDS011;7237;49.500;11.400;2023-04-24T08:44:21;1.13;;;1.10;;
14306;SDS011;7237;49.500;11.400;2023-04-24T08:46:48;1.50;;;1.13;;
14306;SDS011;7237;49.500;11.400;2023-04-24T08:49:17;2.00;;;1.50;;
14306;SDS011;7237;49.500;11.400;2023-04-24T08:51:45;2.80;;;1.30;;
14306;SDS011;7237;49.500;11.400;2023-04-24T08:54:13;1.47;;;1.20;;
14306;SDS011;7237;49.500;11.400;2023-04-24T08:56:40;2.03;;;1.47;;
14306;SDS011;7237;49.500;11.400;2023-04-24T08:59:10;1.60;;;1.50;;
14306;SDS011;7237;49.500;11.400;2023-04-24T09:01:38;1.40;;;1.30;;
14306;SDS011;7237;49.500;11.400;2023-04-24T09:04:07;2.10;;;1.30;;
14306;SDS011;7237;49.500;11.400;2023-04-24T09:06:34;1.50;;;1.30;;
14306;SDS011;7237;49.500;11.400;2023-04-24T09:09:03;3.57;;;1.30;;
14306;SDS011;7237;49.500;11.400;2023-04-24T09:11:31;1.03;;;1.03;;
14306;SDS011;7237;49.500;11.400;2023-04-24T09:13:58;2.00;;;1.50;;
14306;SDS011;7237;49.500;11.400;2023-04-24T09:16:25;1.63;;;1.53;;
14306;SDS011;7237;49.500;11.400;2023-04-24T09:18:52;2.33;;;1.70;;
14306;SDS011;7237;49.500;11.400;2023-04-24T09:21:20;2.20;;;1.50;;
14306;SDS011;7237;49.500;11.400;2023-04-24T09:23:47;1.50;;;1.40;;
14306;SDS011;7237;49.500;11.400;2023-04-24T09:26:25;1.57;;;1.47;;
14306;SDS011;7237;49.500;11.400;2023-04-24T09:28:53;3.17;;;1.57;;
14306;SDS011;7237;49.500;11.400;2023-04-24T09:31:20;1.73;;;1.63;;
14306;SDS011;7237;49.500;11.400;2023-04-24T09:33:53;1.90;;;1.60;;
14306;SDS011;7237;49.500;11.400;2023-04-24T09:36:24;1.83;;;1.70;;
14306;SDS011;7237;49.500;11.400;2023-04-24T09:38:53;1.60;;;1.50;;
14306;SDS011;7237;49.500;11.400;2023-04-24T09:41:22;1.70;;;1.47;;
14306;SDS011;7237;49.500;11.400;2023-04-24T09:43:51;3.53;;;1.60;;
14306;SDS011;7237;49.500;11.400;2023-04-24T09:46:20;1.50;;;1.40;;
14306;SDS011;7237;49.500;11.400;2023-04-24T09:48:47;3.07;;;1.53;;
14306;SDS011;7237;49.500;11.400;2023-04-24T09:51:14;1.50;;;1.40;;
14306;SDS011;7237;49.500;11.400;2023-04-24T09:53:45;3.87;;;1.70;;
14306;SDS011;7237;49.500;11.400;2023-04-24T09:56:12;1.77;;;1.47;;
14306;SDS011;7237;49.500;11.400;2023-04-24T09:58:39;1.33;;;1.23;;
14306;SDS011;7237;49.500;11.400;2023-04-24T10:01:07;2.30;;;1.90;;
14306;SDS011;7237;49.500;11.400;2023-04-24T10:03:34;2.17;;;1.60;;
14306;SDS011;7237;49.500;11.400;2023-04-24T10:06:02;1.33;;;1.23;;
14306;SDS011;7237;49.500;11.400;2023-04-24T10:08:33;1.53;;;1.20;;
14306;SDS011;7237;49.500;11.400;2023-04-24T10:11:01;2.60;;;1.40;;
14306;SDS011;7237;49.500;11.400;2023-04-24T10:13:28;1.70;;;1.60;;
14306;SDS011;7237;49.500;11.400;2023-04-24T10:15:55;1.43;;;1.33;;
14306;SDS011;7237;49.500;11.400;2023-04-24T10:18:24;1.60;;;1.33;;
14306;SDS011;7237;49.500;11.400;2023-04-24T10:20:51;1.80;;;1.50;;
14306;SDS011;7237;49.500;11.400;2023-04-24T10:23:19;1.70;;;1.60;;
14306;SDS011;7237;49.500;11.400;2023-04-24T10:25:46;3.20;;;1.40;;
14306;SDS011;7237;49.500;11.400;2023-04-24T10:28:15;1.60;;;1.50;;
14306;SDS011;7237;49.500;11.400;2023-04-24T10:30:43;1.20;;;1.10;;
14306;SDS011;7237;49.500;11.400;2023-04-24T10:33:10;1.23;;;0.93;;
14306;SDS011;7237;49.500;11.400;2023-04-24T10:35:40;1.07;;;1.07;;
14306;SDS011;7237;49.500;11.400;2023-04-24T10:38:09;4.47;;;1.30;;
14306;SDS011;7237;49.500;11.400;2023-04-24T10:40:36;3.30;;;1.13;;
14306;SDS011;7237;49.500;11.400;2023-04-24T10:43:04;1.17;;;1.07;;
14306;SDS011;7237;49.500;11.400;2023-04-24T10:45:33;1.60;;;1.20;;
14306;SDS011;7237;49.500;11.400;2023-04-24T10:48:01;3.30;;;0.97;;
14306;SDS011;7237;49.500;11.400;2023-04-24T10:50:29;2.75;;;1.00;;
14306;SDS011;7237;49.500;11.400;2023-04-24T10:53:07;3.70;;;0.90;;
14306;SDS011;7237;49.500;11.400;2023-04-24T10:55:44;1.00;;;0.75;;
14306;SDS011;7237;49.500;11.400;2023-04-24T10:58:11;0.70;;;0.70;;
14306;SDS011;7237;49.500;11.400;2023-04-24T11:00:40;1.85;;;1.00;;
14306;SDS011;7237;49.500;11.400;2023-04-24T11:03:12;1.00;;;0.90;;
14306;SDS011;7237;49.500;11.400;2023-04-24T11:05:50;1.10;;;1.00;;
14306;SDS011;7237;49.500;11.400;2023-04-24T11:08:22;0.87;;;0.87;;
14306;SDS011;7237;49.500;11.400;2023-04-24T11:10:54;0.63;;;0.63;;
14306;SDS011;7237;49.500;11.400;2023-04-24T11:13:22;0.50;;;0.50;;
14306;SDS011;7237;49.500;11.400;2023-04-24T11:18:36;1.47;;;1.10;;
14306;SDS011;7237;49.500;11.400;2023-04-24T11:21:09;0.83;;;0.60;;
14306;SDS011;7237;49.500;11.400;2023-04-24T11:23:38;2.03;;;0.83;;
14306;SDS011;7237;49.500;11.400;2023-04-24T11:26:12;0.83;;;0.83;;
14306;SDS011;7237;49.500;11.400;2023-04-24T11:28:46;0.60;;;0.60;;
14306;SDS011;7237;49.500;11.400;2023-04-24T11:34:05;0.70;;;0.70;;
14306;SDS011;7237;49.500;11.400;2023-04-24T11:36:32;0.80;;;0.80;;
14306;SDS011;7237;49.500;11.400;2023-04-24T11:39:00;1.37;;;1.10;;
14306;SDS011;7237;49.500;11.400;2023-04-24T11:41:27;0.80;;;0.80;;
14306;SDS011;7237;49.500;11.400;2023-04-24T11:43:55;1.53;;;0.67;;
14306;SDS011;7237;49.500;11.400;2023-04-24T11:46:22;0.70;;;0.70;;
14306;SDS011;7237;49.500;11.400;2023-04-24T11:48:50;7.90;;;1.27;;
14306;SDS011;7237;49.500;11.400;2023-04-24T11:51:17;1.23;;;1.03;;
14306;SDS011;7237;49.500;11.400;2023-04-24T11:53:44;1.17;;;1.10;;
14306;SDS011;7237;49.500;11.400;2023-04-24T11:56:12;1.03;;;0.97;;
14306;SDS011;7237;49.500;11.400;2023-04-24T11:58:44;1.50;;;1.00;;
14306;SDS011;7237;49.500;11.400;2023-04-24T12:01:12;1.40;;;1.30;;
14306;SDS011;7237;49.500;11.400;2023-04-24T12:03:40;1.30;;;1.20;;
14306;SDS011;7237;49.500;11.400;2023-04-24T12:06:09;1.00;;;1.00;;
14306;SDS011;7237;49.500;11.400;2023-04-24T12:08:37;1.30;;;1.20;;
14306;SDS011;7237;49.500;11.400;2023-04-24T12:11:05;1.40;;;1.30;;
14306;SDS011;7237;49.500;11.400;2023-04-24T12:13:34;1.13;;;1.03;;
14306;SDS011;7237;49.500;11.400;2023-04-24T12:16:03;3.57;;;1.03;;
14306;SDS011;7237;49.500;11.400;2023-04-24T12:18:30;1.17;;;0.93;;
14306;SDS011;7237;49.500;11.400;2023-04-24T12:23:42;0.80;;;0.80;;
14306;SDS011;7237;49.500;11.400;2023-04-24T12:26:09;1.33;;;1.00;;
14306;SDS011;7237;49.500;11.400;2023-04-24T12:28:37;1.10;;;1.10;;
14306;SDS011;7237;49.500;11.400;2023-04-24T12:31:05;2.23;;;1.30;;
14306;SDS011;7237;49.500;11.400;2023-04-24T12:33:33;1.07;;;1.00;;
14306;SDS011;7237;49.500;11.400;2023-04-24T12:36:02;1.03;;;1.00;;
14306;SDS011;7237;49.500;11.400;2023-04-24T12:38:30;1.40;;;1.30;;
14306;SDS011;7237;49.500;11.400;2023-04-24T12:41:05;2.27;;;1.07;;
14306;SDS011;7237;49.500;11.400;2023-04-24T12:43:33;0.97;;;0.97;;
14306;SDS011;7237;49.500;11.400;2023-04-24T12:46:01;1.53;;;1.30;;
14306;SDS011;7237;49.500;11.400;2023-04-24T12:48:28;1.43;;;1.17;;
14306;SDS011;7237;49.500;11.400;2023-04-24T12:50:56;4.97;;;1.30;;
14306;SDS011;7237;49.500;11.400;2023-04-24T12:53:26;1.23;;;1.23;;
14306;SDS011;7237;49.500;11.400;2023-04-24T12:55:54;1.00;;;1.00;;
14306;SDS011;7237;49.500;11.400;2023-04-24T12:58:21;1.20;;;1.10;;
14306;SDS011;7237;49.500;11.400;2023-04-24T13:00:48;1.27;;;1.17;;
14306;SDS011;7237;49.500;11.400;2023-04-24T13:03:16;2.40;;;1.20;;
14306;SDS011;7237;49.500;11.400;2023-04-24T13:05:43;3.70;;;1.27;;
14306;SDS011;7237;49.500;11.400;2023-04-24T13:08:10;1.53;;;1.30;;
14306;SDS011;7237;49.500;11.400;2023-04-24T13:10:37;1.30;;;1.20;;
14306;SDS011;7237;49.500;11.400;2023-04-24T13:13:05;1.33;;;1.23;;
14306;SDS011;7237;49.500;11.400;2023-04-24T13:15:32;1.33;;;1.27;;
14306;SDS011;7237;49.500;11.400;2023-04-24T13:17:59;1.20;;;1.10;;
14306;SDS011;7237;49.500;11.400;2023-04-24T13:20:27;1.33;;;1.20;;
14306;SDS011;7237;49.500;11.400;2023-04-24T13:22:54;1.57;;;1.27;;
14306;SDS011;7237;49.500;11.400;2023-04-24T13:25:20;1.77;;;0.80;;
14306;SDS011;7237;49.500;11.400;2023-04-24T13:27:48;1.27;;;1.17;;
14306;SDS011;7237;49.500;11.400;2023-04-24T13:30:15;1.67;;;1.37;;
14306;SDS011;7237;49.500;11.400;2023-04-24T13:32:42;1.57;;;1.20;;
14306;SDS011;7237;49.500;11.400;2023-04-24T13:35:09;2.23;;;1.10;;
14306;SDS011;7237;49.500;11.400;2023-04-24T13:37:37;1.00;;;1.00;;
14306;SDS011;7237;49.500;11.400;2023-04-24T13:40:04;0.83;;;0.83;;
14306;SDS011;7237;49.500;11.400;2023-04-24T13:42:32;1.70;;;1.00;;
14306;SDS011;7237;49.500;11.400;2023-04-24T13:44:59;2.10;;;1.17;;
14306;SDS011;7237;49.500;11.400;2023-04-24T13:47:25;1.27;;;1.00;;
14306;SDS011;7237;49.500;11.400;2023-04-24T13:49:52;1.20;;;1.10;;
14306;SDS011;7237;49.500;11.400;2023-04-24T13:52:19;3.27;;;1.00;;
14306;SDS011;7237;49.500;11.400;2023-04-24T13:54:47;0.80;;;0.80;;
14306;SDS011;7237;49.500;11.400;2023-04-24T13:57:14;0.90;;;0.90;;
14306;SDS011;7237;49.500;11.400;2023-04-24T13:59:41;1.77;;;1.10;;
14306;SDS011;7237;49.500;11.400;2023-04-24T14:02:08;1.07;;;1.07;;
14306;SDS011;7237;49.500;11.400;2023-04-24T14:04:35;1.13;;;1.03;;
14306;SDS011;7237;49.500;11.400;2023-04-24T14:07:01;1.40;;;1.30;;
14306;SDS011;7237;49.500;11.400;2023-04-24T14:09:28;2.20;;;1.10;;
14306;SDS011;7237;49.500;11.400;2023-04-24T14:11:56;1.97;;;1.30;;
14306;SDS011;7237;49.500;11.400;2023-04-24T14:14:26;1.97;;;1.73;;
14306;SDS011;7237;49.500;11.400;2023-04-24T14:16:52;1.40;;;1.30;;
14306;SDS011;7237;49.500;11.400;2023-04-24T14:19:19;1.70;;;1.40;;
14306;SDS011;7237;49.500;11.400;2023-04-24T14:21:46;1.00;;;1.00;;
14306;SDS011;7237;49.500;11.400;2023-04-24T14:24:12;1.90;;;1.43;;
14306;SDS011;7237;49.500;11.400;2023-04-24T14:26:39;1.03;;;1.03;;
14306;SDS011;7237;49.500;11.400;2023-04-24T14:29:07;1.23;;;0.87;;
14306;SDS011;7237;49.500;11.400;2023-04-24T14:31:34;4.73;;;2.07;;
14306;SDS011;7237;49.500;11.400;2023-04-24T14:34:00;1.43;;;1.33;;
14306;SDS011;7237;49.500;11.400;2023-04-24T14:36:27;1.93;;;1.60;;
14306;SDS011;7237;49.500;11.400;2023-04-24T14:38:54;2.37;;;1.50;;
14306;SDS011;7237;49.500;11.400;2023-04-24T14:41:20;4.73;;;1.40;;
14306;SDS011;7237;49.500;11.400;2023-04-24T14:43:47;1.60;;;1.50;;
14306;SDS011;7237;49.500;11.400;2023-04-24T14:46:15;1.60;;;1.50;;
14306;SDS011;7237;49.500;11.400;2023-04-24T14:48:42;3.17;;;1.77;;
14306;SDS011;7237;49.500;11.400;2023-04-24T14:51:08;1.57;;;1.47;;
14306;SDS011;7237;49.500;11.400;2023-04-24T14:53:35;2.00;;;1.53;;
14306;SDS011;7237;49.500;11.400;2023-04-24T14:56:02;1.50;;;1.40;;
14306;SDS011;7237;49.500;11.400;2023-04-24T14:58:29;1.83;;;1.37;;